Time;durP1;ratioP1;P1;durP2;ratioP2;P2;SDS_P1;SDS_P2;PMS_P1;PMS_P2;Temp;Humidity;BMP_temperature;BMP_pressure;BME280_temperature;BME280_humidity;BME280_pressure;Samples;Min_cycle;Max_cycle;Signal;HPM_P1;HPM_P2
2023/05/22 00:01:50;;;;;;;9.83;8.30;;;21.70;97.00;;;;;;5043678;28;20829;-75
2023/05/22 00:04:20;;;;;;;14.47;8.90;;;21.70;97.20;;;;;;5044847;28;20453;-70
2023/05/22 00:06:47;;;;;;;9.20;8.27;;;21.70;97.10;;;;;;5039576;28;20514;-73
2023/05/22 00:09:14;;;;;;;9.47;8.50;;;21.70;97.10;;;;;;5045484;28;20523;-69
2023/05/22 00:11:41;;;;;;;9.03;8.23;;;21.70;97.10;;;;;;5044264;28;21211;-71
2023/05/22 00:14:12;;;;;;;9.87;8.93;;;21.60;97.20;;;;;;5046795;28;20522;-71
2023/05/22 00:16:39;;;;;;;11.33;9.13;;;21.60;97.10;;;;;;5046534;28;20458;-71
2023/05/22 00:19:11;;;;;;;10.17;9.23;;;21.60;97.10;;;;;;5050415;28;20446;-69
2023/05/22 00:21:39;;;;;;;11.13;9.07;;;21.60;97.00;;;;;;5046848;28;20477;-70
2023/05/22 00:24:07;;;;;;;9.53;8.63;;;21.50;97.00;;;;;;5049302;28;20442;-74
2023/05/22 00:26:34;;;;;;;10.07;8.30;;;21.50;97.10;;;;;;5047599;28;20457;-70
2023/05/22 00:29:01;;;;;;;12.30;9.03;;;21.50;97.00;;;;;;5045922;28;20448;-72
2023/05/22 00:31:28;;;;;;;9.20;8.30;;;21.50;97.10;;;;;;5047149;28;20442;-71
2023/05/22 00:33:54;;;;;;;10.27;9.27;;;21.50;97.10;;;;;;5045533;28;20439;-73
2023/05/22 00:36:21;;;;;;;10.10;9.20;;;21.50;97.10;;;;;;5044609;28;20473;-70
2023/05/22 00:38:50;;;;;;;9.40;8.70;;;21.40;97.10;;;;;;5043426;28;21040;-72
2023/05/22 00:41:16;;;;;;;10.93;7.87;;;21.40;97.10;;;;;;5035866;28;20500;-71
2023/05/22 00:43:44;;;;;;;10.63;9.63;;;21.40;97.20;;;;;;5036647;28;20525;-70
2023/05/22 00:46:11;;;;;;;9.10;8.40;;;21.30;97.30;;;;;;5033041;28;20451;-69
2023/05/22 00:48:38;;;;;;;9.00;8.20;;;21.30;97.30;;;;;;5037459;28;20490;-71
2023/05/22 00:51:07;;;;;;;10.63;8.30;;;21.30;97.30;;;;;;5030931;28;20520;-70
2023/05/22 00:53:41;;;;;;;10.20;8.73;;;21.20;97.30;;;;;;5043865;28;20462;-74
2023/05/22 00:56:09;;;;;;;10.17;8.93;;;21.20;97.40;;;;;;5031619;28;20440;-69
2023/05/22 00:58:37;;;;;;;9.60;8.60;;;21.10;97.60;;;;;;5038887;28;20445;-73
2023/05/22 01:01:06;;;;;;;11.50;9.33;;;21.00;97.60;;;;;;5037765;28;20447;-70
2023/05/22 01:03:36;;;;;;;9.20;8.30;;;21.00;97.80;;;;;;5044573;28;20461;-69
2023/05/22 01:06:03;;;;;;;11.23;8.13;;;20.90;97.80;;;;;;5032024;28;20833;-73
2023/05/22 01:08:41;;;;;;;10.07;8.90;;;20.90;97.90;;;;;;5041966;28;20476;-72
2023/05/22 01:11:16;;;;;;;9.77;8.87;;;20.80;98.00;;;;;;5024189;28;21322;-74
2023/05/22 01:13:58;;;;;;;9.97;9.07;;;20.70;98.10;;;;;;5032368;28;20806;-70
2023/05/22 01:16:31;;;;;;;12.03;9.27;;;20.70;98.20;;;;;;5040934;28;20527;-73
2023/05/22 01:19:36;;;;;;;9.40;8.60;;;20.60;98.40;;;;;;5037448;28;20537;-73
2023/05/22 01:22:25;;;;;;;10.90;9.37;;;20.60;98.50;;;;;;5026344;28;20478;-71
2023/05/22 01:25:17;;;;;;;8.73;8.00;;;20.50;98.70;;;;;;5031706;28;20458;-71
2023/05/22 01:28:12;;;;;;;9.83;8.93;;;20.40;98.70;;;;;;5030223;28;20507;-68
2023/05/22 01:31:07;;;;;;;13.70;8.73;;;20.40;99.00;;;;;;5032746;28;20464;-72
2023/05/22 01:33:41;;;;;;;10.30;9.30;;;20.30;99.00;;;;;;5016802;28;20539;-73
2023/05/22 01:36:09;;;;;;;9.23;8.43;;;20.30;99.20;;;;;;5046377;28;20473;-72
2023/05/22 01:38:37;;;;;;;9.07;8.27;;;20.20;99.20;;;;;;5043856;28;20932;-71
2023/05/22 01:41:05;;;;;;;11.03;9.20;;;20.20;99.40;;;;;;5031959;28;20452;-70
2023/05/22 01:43:32;;;;;;;10.43;9.33;;;20.10;99.50;;;;;;5038244;28;20981;-71
2023/05/22 01:46:00;;;;;;;11.00;9.37;;;20.00;99.70;;;;;;5046013;28;20475;-71
2023/05/22 01:48:27;;;;;;;9.40;8.50;;;19.90;99.90;;;;;;5047864;28;20475;-74
2023/05/22 01:50:59;;;;;;;9.60;8.70;;;19.90;99.90;;;;;;5047397;28;20448;-70
2023/05/22 01:53:33;;;;;;;10.03;9.13;;;19.90;99.90;;;;;;5036572;28;20464;-74
2023/05/22 01:56:06;;;;;;;11.03;9.90;;;19.90;99.90;;;;;;5038088;28;20478;-74
2023/05/22 01:58:42;;;;;;;12.20;9.03;;;19.80;99.90;;;;;;5050286;28;20523;-69
2023/05/22 02:01:13;;;;;;;13.20;10.23;;;19.70;99.90;;;;;;5037000;28;20949;-76
2023/05/22 02:03:42;;;;;;;10.97;9.90;;;19.60;99.90;;;;;;5041084;28;20472;-71
2023/05/22 02:06:14;;;;;;;11.57;9.67;;;19.50;99.90;;;;;;5052623;28;20450;-74
2023/05/22 02:08:42;;;;;;;10.67;9.67;;;19.50;99.90;;;;;;5049004;28;20470;-73
2023/05/22 02:11:11;;;;;;;10.60;9.50;;;19.50;99.90;;;;;;5046458;28;20453;-70
2023/05/22 02:13:38;;;;;;;10.20;9.30;;;19.50;99.90;;;;;;5054378;28;20473;-71
2023/05/22 02:16:06;;;;;;;10.90;9.83;;;19.40;99.90;;;;;;5032495;28;20444;-71
2023/05/22 02:18:34;;;;;;;12.03;10.53;;;19.40;99.90;;;;;;5035662;28;20530;-72
2023/05/22 02:21:02;;;;;;;10.80;9.70;;;19.40;99.90;;;;;;5029121;28;20549;-72
2023/05/22 02:23:38;;;;;;;10.60;9.60;;;19.30;99.90;;;;;;5038562;28;20489;-73
2023/05/22 02:26:05;;;;;;;10.00;9.00;;;19.30;99.90;;;;;;5032611;28;20522;-69
2023/05/22 02:28:32;;;;;;;10.37;9.27;;;19.20;99.90;;;;;;5035667;28;20575;-69
2023/05/22 02:30:59;;;;;;;9.90;8.90;;;19.20;99.90;;;;;;5033420;28;20795;-74
2023/05/22 02:33:28;;;;;;;9.90;9.00;;;19.20;99.90;;;;;;5032723;28;20477;-70
2023/05/22 02:35:57;;;;;;;11.30;10.27;;;19.10;99.90;;;;;;5035404;28;20451;-71
2023/05/22 02:38:23;;;;;;;10.47;9.47;;;19.10;99.90;;;;;;5043013;28;20445;-73
2023/05/22 02:40:50;;;;;;;10.80;9.73;;;19.10;99.90;;;;;;5048870;28;20459;-71
2023/05/22 02:43:17;;;;;;;9.83;8.83;;;19.10;99.90;;;;;;5045951;28;20557;-72
2023/05/22 02:45:45;;;;;;;10.73;8.50;;;19.10;99.90;;;;;;5046839;28;20445;-69
2023/05/22 02:48:12;;;;;;;15.00;10.97;;;19.10;99.90;;;;;;5047887;28;20511;-72
2023/05/22 02:50:40;;;;;;;10.50;9.60;;;19.00;99.90;;;;;;5045769;28;20471;-72
2023/05/22 02:53:09;;;;;;;10.80;9.80;;;19.00;99.90;;;;;;5036445;28;20880;-71
2023/05/22 02:55:36;;;;;;;12.10;10.53;;;19.00;99.90;;;;;;5043279;28;20493;-71
2023/05/22 02:58:02;;;;;;;9.30;8.40;;;19.00;99.90;;;;;;5047422;28;20434;-71
2023/05/22 03:00:30;;;;;;;9.10;8.30;;;18.90;99.90;;;;;;5042128;28;20443;-74
2023/05/22 03:02:56;;;;;;;9.80;8.90;;;19.00;99.90;;;;;;5052157;28;20676;-74
2023/05/22 03:05:23;;;;;;;9.40;8.57;;;18.90;99.90;;;;;;5036170;28;20438;-74
2023/05/22 03:07:51;;;;;;;14.00;9.40;;;18.90;99.90;;;;;;5042957;28;20570;-72
2023/05/22 03:10:20;;;;;;;10.50;9.43;;;18.90;99.90;;;;;;5044988;28;20453;-70
2023/05/22 03:12:46;;;;;;;10.07;8.90;;;18.90;99.90;;;;;;5041175;28;20925;-71
2023/05/22 03:15:13;;;;;;;10.77;9.30;;;18.90;99.90;;;;;;5041735;28;20529;-70
2023/05/22 03:17:40;;;;;;;10.93;9.83;;;18.90;99.90;;;;;;5040222;28;20459;-72
2023/05/22 03:20:09;;;;;;;10.33;9.30;;;18.90;99.90;;;;;;5050608;28;20533;-73
2023/05/22 03:22:36;;;;;;;10.60;8.83;;;18.90;99.90;;;;;;5045246;28;20476;-72
2023/05/22 03:25:05;;;;;;;10.13;9.00;;;18.90;99.90;;;;;;5044770;28;20493;-75
2023/05/22 03:27:33;;;;;;;9.27;8.47;;;18.90;99.90;;;;;;5044936;28;20450;-69
2023/05/22 03:30:00;;;;;;;10.37;9.30;;;19.00;99.90;;;;;;5043305;28;20806;-71
2023/05/22 03:32:27;;;;;;;8.37;7.53;;;19.00;99.90;;;;;;5044864;28;20474;-75
2023/05/22 03:34:55;;;;;;;9.53;8.57;;;19.10;99.90;;;;;;5041205;28;20456;-73
2023/05/22 03:37:21;;;;;;;9.47;8.57;;;19.10;99.90;;;;;;5047184;28;20443;-71
2023/05/22 03:39:48;;;;;;;9.40;8.50;;;19.10;99.90;;;;;;5044991;28;20546;-71
2023/05/22 03:42:16;;;;;;;9.27;8.20;;;19.10;99.90;;;;;;5041371;28;20832;-73
2023/05/22 03:44:44;;;;;;;8.90;8.10;;;19.10;99.90;;;;;;5038435;28;20484;-72
2023/05/22 03:47:11;;;;;;;9.90;9.07;;;19.20;99.90;;;;;;5047367;28;20523;-71
2023/05/22 03:49:38;;;;;;;9.37;8.57;;;19.20;99.90;;;;;;5038770;28;20525;-69
2023/05/22 03:52:05;;;;;;;9.67;8.70;;;19.20;99.90;;;;;;5042767;28;20564;-72
2023/05/22 03:54:32;;;;;;;8.27;7.47;;;19.30;99.90;;;;;;5034963;28;20909;-72
2023/05/22 03:56:59;;;;;;;8.40;7.60;;;19.30;99.90;;;;;;5042166;28;20488;-72
2023/05/22 03:59:26;;;;;;;9.23;8.33;;;19.40;99.90;;;;;;5048346;28;20451;-71
2023/05/22 04:01:56;;;;;;;9.40;8.30;;;19.40;99.90;;;;;;5037281;28;20474;-71
2023/05/22 04:04:25;;;;;;;10.50;8.47;;;19.40;99.90;;;;;;5047832;28;20859;-73
2023/05/22 04:06:52;;;;;;;10.30;8.40;;;19.50;99.90;;;;;;5035164;28;20481;-70
2023/05/22 04:09:20;;;;;;;8.30;7.43;;;19.50;99.90;;;;;;5038890;28;20480;-70
2023/05/22 04:11:47;;;;;;;10.43;9.43;;;19.50;99.90;;;;;;5040391;28;20553;-71
2023/05/22 04:14:14;;;;;;;11.93;8.67;;;19.50;99.90;;;;;;5034988;28;20558;-71
2023/05/22 04:16:41;;;;;;;9.57;8.00;;;19.50;99.90;;;;;;5041384;28;20479;-71
2023/05/22 04:19:09;;;;;;;9.30;8.37;;;19.50;99.90;;;;;;5045518;28;20451;-74
2023/05/22 04:21:37;;;;;;;10.57;9.07;;;19.60;99.90;;;;;;5039906;28;20448;-75
2023/05/22 04:24:05;;;;;;;9.73;8.83;;;19.60;99.90;;;;;;5046698;28;20444;-71
2023/05/22 04:26:32;;;;;;;9.77;8.77;;;19.70;99.90;;;;;;5035844;28;20445;-71
2023/05/22 04:29:00;;;;;;;8.50;7.60;;;19.70;99.90;;;;;;5046882;28;20503;-69
2023/05/22 04:31:26;;;;;;;8.90;8.00;;;19.80;99.80;;;;;;5037779;28;20504;-70
2023/05/22 04:33:54;;;;;;;9.20;7.43;;;19.80;99.70;;;;;;5039265;28;20531;-72
2023/05/22 04:36:24;;;;;;;9.60;8.33;;;19.80;99.60;;;;;;5044832;28;20453;-71
2023/05/22 04:38:51;;;;;;;10.63;7.90;;;19.80;99.70;;;;;;5052821;28;20460;-70
2023/05/22 04:41:21;;;;;;;7.77;7.07;;;19.80;99.80;;;;;;5053972;28;20506;-71
2023/05/22 04:43:48;;;;;;;10.37;9.30;;;19.90;99.80;;;;;;5052126;28;20446;-75
2023/05/22 04:46:15;;;;;;;9.47;8.40;;;20.00;99.50;;;;;;5044413;28;20455;-73
2023/05/22 04:48:42;;;;;;;8.47;7.67;;;20.10;99.50;;;;;;5043362;28;20486;-72
2023/05/22 04:51:09;;;;;;;11.20;8.73;;;20.10;99.40;;;;;;5049191;28;20530;-73
2023/05/22 04:53:37;;;;;;;8.40;7.60;;;20.10;99.50;;;;;;5047932;28;20942;-71
2023/05/22 04:56:05;;;;;;;8.53;7.70;;;20.20;99.40;;;;;;5050445;28;20450;-73
2023/05/22 04:58:32;;;;;;;9.20;8.33;;;20.20;99.00;;;;;;5037001;28;20531;-71
2023/05/22 05:00:59;;;;;;;10.20;8.90;;;20.20;99.00;;;;;;5044169;28;20989;-69
2023/05/22 05:03:27;;;;;;;11.73;8.50;;;20.30;98.80;;;;;;5041523;28;20467;-72
2023/05/22 05:05:54;;;;;;;11.13;8.67;;;20.30;98.80;;;;;;5050149;28;20529;-70
2023/05/22 05:08:20;;;;;;;9.73;8.90;;;20.40;98.40;;;;;;5049014;28;20813;-70
2023/05/22 05:10:49;;;;;;;10.20;7.63;;;20.50;98.40;;;;;;5037618;28;20791;-69
2023/05/22 05:13:16;;;;;;;9.97;8.97;;;20.70;97.90;;;;;;5047336;28;20475;-69
2023/05/22 05:15:43;;;;;;;12.63;8.30;;;20.90;97.70;;;;;;5048139;28;20480;-68
2023/05/22 05:18:11;;;;;;;9.43;7.70;;;21.10;97.10;;;;;;5042746;28;21042;-70
2023/05/22 05:20:37;;;;;;;8.83;7.93;;;21.30;96.70;;;;;;5042276;28;20812;-68
2023/05/22 05:23:04;;;;;;;9.80;8.80;;;21.50;96.50;;;;;;5042790;28;20554;-68
2023/05/22 05:25:31;;;;;;;9.00;8.17;;;21.80;96.30;;;;;;5053557;28;20908;-73
2023/05/22 05:27:59;;;;;;;9.43;7.70;;;22.30;96.10;;;;;;5044091;28;20924;-70
2023/05/22 05:30:28;;;;;;;8.47;7.50;;;22.80;94.90;;;;;;5043092;28;20946;-69
2023/05/22 05:32:55;;;;;;;15.20;8.37;;;23.50;94.60;;;;;;5047671;28;21027;-72
2023/05/22 05:35:22;;;;;;;7.33;6.57;;;24.00;93.40;;;;;;5047750;28;20552;-70
2023/05/22 05:37:50;;;;;;;12.00;8.27;;;24.20;91.90;;;;;;5048986;28;20931;-71
2023/05/22 05:40:17;;;;;;;9.37;7.60;;;24.10;91.70;;;;;;5036799;28;20443;-74
2023/05/22 05:42:44;;;;;;;10.27;7.50;;;24.00;91.30;;;;;;5043435;28;20474;-71
2023/05/22 05:45:13;;;;;;;7.80;7.00;;;23.80;91.50;;;;;;5050335;28;21000;-72
2023/05/22 05:47:40;;;;;;;9.83;7.57;;;23.80;91.50;;;;;;5045504;28;20526;-71
2023/05/22 05:50:08;;;;;;;8.37;7.53;;;23.60;91.60;;;;;;5050389;28;20474;-73
2023/05/22 05:52:35;;;;;;;7.93;7.13;;;23.50;91.90;;;;;;5034767;28;20596;-72
2023/05/22 05:55:02;;;;;;;9.37;7.73;;;23.40;92.20;;;;;;5046636;28;20447;-70
2023/05/22 05:57:30;;;;;;;9.20;7.50;;;23.20;92.70;;;;;;5042901;28;20439;-71
2023/05/22 05:59:57;;;;;;;8.40;7.60;;;23.00;93.00;;;;;;5040849;28;20434;-72
2023/05/22 06:02:25;;;;;;;10.20;6.73;;;22.90;92.70;;;;;;5052126;28;20972;-70
2023/05/22 06:04:52;;;;;;;8.03;7.23;;;22.90;92.60;;;;;;5049408;28;20445;-69
2023/05/22 06:07:19;;;;;;;8.33;7.23;;;22.90;92.90;;;;;;5038154;28;20490;-69
2023/05/22 06:09:46;;;;;;;8.40;7.23;;;23.00;93.20;;;;;;5045521;28;20554;-73
2023/05/22 06:12:13;;;;;;;12.90;7.23;;;23.00;92.70;;;;;;5037198;28;20532;-68
2023/05/22 06:14:40;;;;;;;8.53;7.73;;;23.00;92.60;;;;;;5037194;28;20476;-69
2023/05/22 06:17:08;;;;;;;7.87;7.17;;;23.00;92.30;;;;;;5040771;28;20514;-71
2023/05/22 06:19:36;;;;;;;9.40;7.60;;;23.10;92.30;;;;;;5035804;28;20449;-74
2023/05/22 06:22:03;;;;;;;9.23;7.20;;;23.10;92.10;;;;;;5046652;28;20851;-74
2023/05/22 06:24:31;;;;;;;8.57;7.70;;;23.40;92.30;;;;;;5042645;28;20537;-71
2023/05/22 06:26:58;;;;;;;8.97;8.07;;;23.50;91.70;;;;;;5046353;28;20445;-69
2023/05/22 06:29:25;;;;;;;8.40;6.67;;;23.50;91.90;;;;;;5045811;28;20501;-73
2023/05/22 06:31:52;;;;;;;15.03;8.23;;;23.70;92.20;;;;;;5053272;28;20471;-73
2023/05/22 06:34:20;;;;;;;7.70;6.90;;;23.80;91.90;;;;;;5052558;28;20461;-71
2023/05/22 06:36:50;;;;;;;9.90;8.60;;;23.80;91.70;;;;;;5043869;28;20501;-73
2023/05/22 06:39:17;;;;;;;9.13;7.30;;;24.10;91.80;;;;;;5044009;28;20920;-73
2023/05/22 06:41:45;;;;;;;6.97;6.23;;;24.80;91.70;;;;;;5040892;28;20480;-76
2023/05/22 06:44:12;;;;;;;7.73;6.93;;;25.40;90.10;;;;;;5052248;28;20464;-73
2023/05/22 06:46:39;;;;;;;7.50;6.80;;;26.00;88.10;;;;;;5044889;28;20442;-71
2023/05/22 06:49:06;;;;;;;9.77;8.17;;;26.30;89.40;;;;;;5049536;28;20979;-71
2023/05/22 06:51:33;;;;;;;13.73;8.70;;;26.40;89.10;;;;;;5045604;28;20525;-72
2023/05/22 06:54:03;;;;;;;9.50;7.60;;;26.40;89.70;;;;;;5048269;28;20905;-74
2023/05/22 06:56:30;;;;;;;12.17;7.50;;;26.40;89.10;;;;;;5035669;28;20448;-72
2023/05/22 06:58:57;;;;;;;10.10;8.03;;;26.10;89.10;;;;;;5040374;28;20454;-72
2023/05/22 07:01:24;;;;;;;14.60;7.50;;;26.00;89.00;;;;;;5045089;28;20534;-71
2023/05/22 07:03:51;;;;;;;10.90;7.10;;;25.90;89.80;;;;;;5043599;28;20841;-72
2023/05/22 07:06:18;;;;;;;12.03;8.63;;;25.80;89.00;;;;;;5050938;28;20456;-72
2023/05/22 07:08:45;;;;;;;12.63;7.40;;;25.70;90.00;;;;;;5046009;28;20485;-73
2023/05/22 07:11:13;;;;;;;8.33;7.33;;;25.60;89.80;;;;;;5043503;28;20446;-72
2023/05/22 07:13:40;;;;;;;8.30;7.50;;;25.70;89.40;;;;;;5049017;28;20484;-72
2023/05/22 07:16:07;;;;;;;14.33;8.20;;;25.60;90.00;;;;;;5050193;28;20563;-70
2023/05/22 07:18:34;;;;;;;8.70;7.37;;;25.50;86.60;;;;;;5041513;28;20526;-72
2023/05/22 07:21:01;;;;;;;10.40;9.37;;;25.10;86.50;;;;;;5049679;28;20504;-74
2023/05/22 07:23:28;;;;;;;15.33;7.70;;;24.90;87.10;;;;;;5041448;28;20506;-73
2023/05/22 07:25:55;;;;;;;21.23;8.60;;;24.50;87.70;;;;;;5046047;28;20450;-71
2023/05/22 07:28:23;;;;;;;8.83;7.90;;;24.40;88.60;;;;;;5050030;28;20939;-75
2023/05/22 07:30:50;;;;;;;7.63;6.93;;;24.20;89.20;;;;;;5036773;28;20504;-73
2023/05/22 07:33:17;;;;;;;8.70;7.87;;;24.20;89.40;;;;;;5045413;28;20495;-73
2023/05/22 07:35:45;;;;;;;8.00;7.20;;;24.20;90.00;;;;;;5043061;28;20443;-70
2023/05/22 07:38:12;;;;;;;12.60;8.57;;;24.10;89.80;;;;;;5051303;28;20442;-73
2023/05/22 07:40:39;;;;;;;9.20;8.30;;;24.00;90.30;;;;;;5044409;28;20446;-72
2023/05/22 07:43:06;;;;;;;8.57;7.77;;;24.00;90.50;;;;;;5044975;28;20469;-71
2023/05/22 07:45:34;;;;;;;9.03;6.63;;;23.70;90.80;;;;;;5050227;28;20528;-71
2023/05/22 07:48:03;;;;;;;7.23;6.53;;;23.60;91.00;;;;;;5034157;28;20512;-71
2023/05/22 07:50:31;;;;;;;8.73;7.40;;;23.60;91.30;;;;;;5035220;28;20485;-71
2023/05/22 07:53:03;;;;;;;11.27;7.10;;;23.60;91.50;;;;;;5040776;28;20478;-72
2023/05/22 07:55:30;;;;;;;8.03;6.87;;;23.50;91.20;;;;;;5044154;28;20986;-72
2023/05/22 07:57:57;;;;;;;7.37;6.60;;;23.60;91.40;;;;;;5043191;28;20446;-73
2023/05/22 08:00:24;;;;;;;14.10;7.10;;;23.70;91.30;;;;;;5042865;28;20538;-74
2023/05/22 08:02:52;;;;;;;9.90;7.00;;;23.70;91.10;;;;;;5042714;28;20991;-73
2023/05/22 08:05:19;;;;;;;11.97;7.50;;;23.60;91.10;;;;;;5041539;28;20450;-72
2023/05/22 08:07:46;;;;;;;9.00;7.20;;;23.70;91.10;;;;;;5044986;28;20824;-73
2023/05/22 08:10:15;;;;;;;10.37;8.13;;;23.80;91.10;;;;;;5044628;28;20989;-72
2023/05/22 08:12:42;;;;;;;9.63;8.10;;;23.80;92.20;;;;;;5047093;28;20572;-71
2023/05/22 08:15:09;;;;;;;15.20;9.13;;;23.80;92.70;;;;;;5050166;28;20446;-72
2023/05/22 08:17:36;;;;;;;8.23;7.40;;;23.90;92.90;;;;;;5047641;28;20925;-74
2023/05/22 08:20:06;;;;;;;11.37;8.33;;;23.80;93.50;;;;;;5037967;28;20530;-74
2023/05/22 08:22:33;;;;;;;9.13;8.07;;;23.80;93.70;;;;;;5046562;28;20473;-70
2023/05/22 08:25:00;;;;;;;14.13;8.70;;;23.70;93.70;;;;;;5043183;28;20447;-75
2023/05/22 08:27:27;;;;;;;18.13;8.60;;;23.60;93.80;;;;;;5036573;28;20571;-72
2023/05/22 08:29:55;;;;;;;13.30;8.80;;;23.60;93.90;;;;;;5042285;28;20485;-73
2023/05/22 08:32:22;;;;;;;8.80;8.00;;;23.40;94.20;;;;;;5046900;28;20795;-74
2023/05/22 08:34:49;;;;;;;9.43;8.53;;;23.40;94.40;;;;;;5040165;28;20443;-72
2023/05/22 08:37:17;;;;;;;8.83;7.63;;;23.30;94.40;;;;;;5041756;28;20541;-73
2023/05/22 08:39:44;;;;;;;14.33;7.90;;;23.20;94.70;;;;;;5046340;28;20445;-71
2023/05/22 08:42:11;;;;;;;9.30;8.30;;;23.10;95.10;;;;;;5031069;28;20482;-75
2023/05/22 08:44:39;;;;;;;10.37;9.10;;;23.10;95.30;;;;;;5038014;28;20455;-72
2023/05/22 08:47:10;;;;;;;8.90;8.00;;;23.20;95.60;;;;;;5049437;28;20781;-71
2023/05/22 08:49:39;;;;;;;8.07;7.37;;;23.20;95.70;;;;;;5040460;28;20506;-73
2023/05/22 08:52:13;;;;;;;10.90;8.70;;;23.20;95.50;;;;;;5047961;28;20466;-72
2023/05/22 08:54:43;;;;;;;12.10;8.73;;;23.30;95.80;;;;;;5043114;28;20961;-72
2023/05/22 08:57:10;;;;;;;9.73;8.73;;;23.40;95.80;;;;;;5039066;28;20454;-73
2023/05/22 08:59:40;;;;;;;21.17;9.87;;;23.30;95.80;;;;;;5043934;28;20444;-71
2023/05/22 09:02:07;;;;;;;9.30;8.43;;;23.40;95.80;;;;;;5044710;28;20557;-75
2023/05/22 09:04:35;;;;;;;14.27;8.77;;;23.40;96.00;;;;;;5044020;28;20800;-70
2023/05/22 09:07:04;;;;;;;15.23;9.07;;;23.40;95.70;;;;;;5036420;28;20520;-72
2023/05/22 09:09:32;;;;;;;10.77;9.77;;;23.50;95.70;;;;;;5034458;28;20475;-71
2023/05/22 09:12:01;;;;;;;10.00;8.87;;;23.50;95.70;;;;;;5044179;28;20458;-73
2023/05/22 09:14:28;;;;;;;11.67;8.87;;;23.50;95.70;;;;;;5042284;28;20457;-75
2023/05/22 09:16:55;;;;;;;11.40;8.20;;;23.60;95.40;;;;;;5048562;28;20541;-72
2023/05/22 09:19:21;;;;;;;13.47;8.73;;;23.70;95.30;;;;;;5041430;28;20466;-73
2023/05/22 09:21:49;;;;;;;14.00;9.87;;;23.80;95.50;;;;;;5047229;28;20503;-72
2023/05/22 09:24:16;;;;;;;11.10;8.40;;;23.80;95.20;;;;;;5046138;28;20465;-72
2023/05/22 09:26:43;;;;;;;9.90;8.67;;;23.90;95.10;;;;;;5049988;28;20532;-70
2023/05/22 09:29:11;;;;;;;13.43;8.50;;;23.80;94.90;;;;;;5039571;28;20442;-73
2023/05/22 09:31:42;;;;;;;14.60;9.00;;;23.90;94.90;;;;;;5047153;28;20553;-72
2023/05/22 09:34:12;;;;;;;10.13;8.50;;;23.80;95.00;;;;;;5037015;28;20442;-70
2023/05/22 09:36:40;;;;;;;10.13;8.53;;;23.90;95.40;;;;;;5046659;28;20434;-73
2023/05/22 09:39:07;;;;;;;11.47;9.60;;;23.90;95.50;;;;;;5050851;28;20492;-72
2023/05/22 09:41:36;;;;;;;13.00;10.50;;;23.90;95.40;;;;;;5045894;28;20489;-73
2023/05/22 09:44:13;;;;;;;10.87;8.77;;;23.90;95.30;;;;;;5043542;28;20445;-72
2023/05/22 09:46:41;;;;;;;10.07;9.17;;;23.90;95.30;;;;;;5047135;28;20453;-73
2023/05/22 09:49:08;;;;;;;10.03;8.53;;;23.80;96.00;;;;;;5035023;28;20446;-74
2023/05/22 09:51:38;;;;;;;9.87;8.97;;;23.80;96.00;;;;;;5042887;28;20478;-71
2023/05/22 09:54:08;;;;;;;11.73;9.87;;;23.90;95.80;;;;;;5034932;28;20449;-73
2023/05/22 09:56:36;;;;;;;12.53;9.37;;;24.00;96.20;;;;;;5045597;28;20443;-71
2023/05/22 09:59:05;;;;;;;14.13;9.73;;;24.00;96.20;;;;;;5048784;28;20529;-73
2023/05/22 10:01:34;;;;;;;20.67;9.40;;;24.20;96.10;;;;;;5043670;28;20442;-73
2023/05/22 10:04:02;;;;;;;12.50;9.13;;;24.20;96.10;;;;;;5047844;28;20541;-74
2023/05/22 10:06:32;;;;;;;10.47;9.30;;;24.40;95.90;;;;;;5030321;28;21037;-73
2023/05/22 10:09:05;;;;;;;10.20;9.13;;;24.50;95.80;;;;;;5046773;28;20468;-72
2023/05/22 10:11:33;;;;;;;13.53;8.30;;;24.50;95.60;;;;;;5049542;28;20492;-73
2023/05/22 10:14:03;;;;;;;15.80;8.87;;;24.50;95.60;;;;;;5051348;28;20962;-72
2023/05/22 10:16:32;;;;;;;10.40;8.93;;;24.70;95.30;;;;;;5044471;28;20554;-73
2023/05/22 10:19:01;;;;;;;9.67;8.77;;;24.60;95.10;;;;;;5037873;28;20449;-72
2023/05/22 10:21:30;;;;;;;11.73;8.43;;;24.60;95.40;;;;;;5047183;28;20488;-71
2023/05/22 10:23:59;;;;;;;9.17;8.37;;;24.60;95.20;;;;;;5045516;28;20470;-71
2023/05/22 10:26:27;;;;;;;9.53;8.63;;;24.50;95.20;;;;;;5040408;28;20448;-74
2023/05/22 10:29:00;;;;;;;13.00;9.10;;;24.50;94.90;;;;;;5046223;28;20812;-72
2023/05/22 10:31:36;;;;;;;10.87;8.00;;;24.60;94.70;;;;;;5042259;28;20474;-74
2023/05/22 10:34:10;;;;;;;9.00;8.10;;;24.70;94.60;;;;;;5032942;28;20528;-71
2023/05/22 10:36:48;;;;;;;9.40;8.50;;;24.70;94.40;;;;;;5038494;28;20822;-71
2023/05/22 10:39:30;;;;;;;11.37;9.83;;;24.60;94.80;;;;;;5038338;28;20517;-72
2023/05/22 10:41:57;;;;;;;10.87;9.43;;;24.60;95.10;;;;;;5050353;28;20533;-71
2023/05/22 10:44:24;;;;;;;12.17;10.97;;;24.50;95.40;;;;;;5051675;28;20456;-72
2023/05/22 10:46:51;;;;;;;11.33;10.23;;;24.50;95.80;;;;;;5045957;28;20460;-73
2023/05/22 10:49:23;;;;;;;11.70;10.20;;;24.60;95.80;;;;;;5050579;28;20438;-71
2023/05/22 10:51:55;;;;;;;13.10;11.33;;;24.50;96.00;;;;;;5043156;28;20486;-70
2023/05/22 10:54:38;;;;;;;11.57;10.50;;;24.60;95.90;;;;;;5051632;28;20963;-71
2023/05/22 10:57:11;;;;;;;14.37;11.87;;;24.60;96.10;;;;;;5040720;28;20443;-73
2023/05/22 10:59:38;;;;;;;12.27;10.97;;;24.50;96.00;;;;;;5047367;28;20446;-71
2023/05/22 11:02:06;;;;;;;12.67;11.43;;;24.40;96.10;;;;;;5049139;28;20553;-71
2023/05/22 11:04:34;;;;;;;13.43;11.50;;;24.30;95.80;;;;;;5051098;28;20448;-71
2023/05/22 11:07:07;;;;;;;12.20;11.03;;;24.20;95.50;;;;;;5045751;28;20928;-72
2023/05/22 11:09:40;;;;;;;12.27;11.07;;;24.10;95.90;;;;;;5042717;28;20853;-74
2023/05/22 11:12:18;;;;;;;12.57;11.37;;;24.20;95.70;;;;;;5044838;28;20462;-72
2023/05/22 11:14:52;;;;;;;11.47;10.40;;;24.10;95.70;;;;;;5041361;28;20481;-71
2023/05/22 11:17:24;;;;;;;16.30;12.10;;;24.00;95.90;;;;;;5047740;28;20447;-70
2023/05/22 11:20:00;;;;;;;15.57;12.40;;;24.00;96.10;;;;;;5046299;28;20529;-72
2023/05/22 11:22:31;;;;;;;10.93;9.80;;;24.10;96.00;;;;;;5045286;28;20596;-71
2023/05/22 11:24:58;;;;;;;11.73;10.33;;;24.30;96.00;;;;;;5041705;28;20588;-71
2023/05/22 11:27:26;;;;;;;13.87;10.67;;;24.40;95.80;;;;;;5045821;28;20446;-72
2023/05/22 11:29:54;;;;;;;11.57;10.47;;;24.30;95.80;;;;;;5041416;28;20944;-69
2023/05/22 11:32:23;;;;;;;10.60;9.60;;;24.40;95.90;;;;;;5047876;28;20515;-72
2023/05/22 11:34:50;;;;;;;14.47;12.07;;;24.40;95.90;;;;;;5044209;28;20446;-70
2023/05/22 11:37:19;;;;;;;13.77;12.37;;;24.60;95.70;;;;;;5051155;28;20529;-70
2023/05/22 11:39:50;;;;;;;14.83;11.90;;;24.70;95.60;;;;;;5038582;28;20496;-72
2023/05/22 11:42:18;;;;;;;13.87;12.47;;;24.70;95.60;;;;;;5043955;28;20485;-72
2023/05/22 11:44:45;;;;;;;12.50;11.27;;;24.70;95.20;;;;;;5049423;28;20505;-71
2023/05/22 11:47:12;;;;;;;11.97;10.87;;;24.70;95.00;;;;;;5047176;28;20545;-73
2023/05/22 11:49:40;;;;;;;12.40;11.17;;;24.70;95.20;;;;;;5041355;28;20529;-71
2023/05/22 11:52:07;;;;;;;12.63;11.33;;;24.70;95.00;;;;;;5042943;28;20512;-72
2023/05/22 11:54:36;;;;;;;15.27;11.40;;;24.60;95.00;;;;;;5048328;28;20536;-72
2023/05/22 11:57:04;;;;;;;14.13;11.33;;;24.60;95.20;;;;;;5044495;28;20439;-72
2023/05/22 11:59:31;;;;;;;13.40;11.60;;;24.60;95.40;;;;;;5038963;28;20542;-71
2023/05/22 12:01:59;;;;;;;13.03;11.40;;;24.60;95.40;;;;;;5041387;28;20474;-72
2023/05/22 12:04:26;;;;;;;15.33;11.97;;;24.60;95.40;;;;;;5039075;28;20562;-72
2023/05/22 12:06:53;;;;;;;16.00;12.57;;;24.60;95.40;;;;;;5043634;28;20447;-71
2023/05/22 12:09:20;;;;;;;12.43;11.23;;;24.70;95.40;;;;;;5045635;28;20753;-72
2023/05/22 12:11:49;;;;;;;14.23;12.77;;;24.80;95.60;;;;;;5041081;28;20578;-72
2023/05/22 12:14:16;;;;;;;13.33;11.50;;;24.80;95.50;;;;;;5045925;28;20980;-69
2023/05/22 12:16:43;;;;;;;14.70;13.20;;;25.00;95.50;;;;;;5044222;28;20449;-72
2023/05/22 12:19:11;;;;;;;12.53;11.43;;;25.00;95.50;;;;;;5045572;28;20449;-71
2023/05/22 12:21:40;;;;;;;14.83;11.70;;;25.10;95.50;;;;;;5035585;28;20470;-74
2023/05/22 12:24:08;;;;;;;12.70;11.50;;;25.20;95.60;;;;;;5035128;28;20802;-74
2023/05/22 12:26:36;;;;;;;16.13;13.93;;;25.20;95.70;;;;;;5024976;28;20519;-71
2023/05/22 12:29:04;;;;;;;17.40;13.90;;;25.10;95.80;;;;;;5038351;28;20446;-71
2023/05/22 12:31:37;;;;;;;19.70;13.40;;;25.10;95.90;;;;;;5031980;28;20509;-73
2023/05/22 12:34:06;;;;;;;15.10;13.60;;;25.10;96.00;;;;;;5028513;28;20479;-70
2023/05/22 12:36:34;;;;;;;17.00;12.30;;;25.00;96.20;;;;;;5034174;28;20475;-74
2023/05/22 12:39:07;;;;;;;16.83;13.90;;;25.00;96.30;;;;;;5041077;28;20538;-72
2023/05/22 12:41:34;;;;;;;17.97;16.07;;;24.90;96.40;;;;;;5033902;28;20564;-75
2023/05/22 12:44:02;;;;;;;18.07;13.67;;;24.80;96.20;;;;;;5033261;28;20501;-73
2023/05/22 12:46:31;;;;;;;16.47;14.83;;;24.80;96.60;;;;;;5037920;28;20461;-72